sensor_id;sensor_type;location;lat;lon;timestamp;P1;durP1;ratioP1;P2;durP2;ratioP2
73729;SDS011;62036;48.128;16.458;2023-04-10T00:00:07;16.33;;;7.88;;
73729;SDS011;62036;48.128;16.458;2023-04-10T00:02:33;15.73;;;8.30;;
73729;SDS011;62036;48.128;16.458;2023-04-10T00:05:01;17.42;;;9.07;;
73729;SDS011;62036;48.128;16.458;2023-04-10T00:07:27;13.13;;;7.72;;
73729;SDS011;62036;48.128;16.458;2023-04-10T00:09:53;13.32;;;7.75;;
73729;SDS011;62036;48.128;16.458;2023-04-10T00:12:19;13.30;;;6.65;;
73729;SDS011;62036;48.128;16.458;2023-04-10T00:14:46;17.83;;;8.90;;
73729;SDS011;62036;48.128;16.458;2023-04-10T00:17:12;11.63;;;7.43;;
73729;SDS011;62036;48.128;16.458;2023-04-10T00:19:38;14.10;;;6.65;;
73729;SDS011;62036;48.128;16.458;2023-04-10T00:22:04;14.18;;;7.28;;
73729;SDS011;62036;48.128;16.458;2023-04-10T00:24:30;12.35;;;7.18;;
73729;SDS011;62036;48.128;16.458;2023-04-10T00:26:56;12.63;;;6.45;;
73729;SDS011;62036;48.128;16.458;2023-04-10T00:29:22;16.10;;;8.63;;
73729;SDS011;62036;48.128;16.458;2023-04-10T00:31:48;14.73;;;7.25;;
73729;SDS011;62036;48.128;16.458;2023-04-10T00:34:15;14.50;;;7.75;;
73729;SDS011;62036;48.128;16.458;2023-04-10T00:36:41;11.55;;;6.47;;
73729;SDS011;62036;48.128;16.458;2023-04-10T00:39:07;14.30;;;6.72;;
73729;SDS011;62036;48.128;16.458;2023-04-10T00:41:33;11.95;;;6.82;;
73729;SDS011;62036;48.128;16.458;2023-04-10T00:43:59;16.25;;;8.40;;
73729;SDS011;62036;48.128;16.458;2023-04-10T00:46:26;16.77;;;8.57;;
73729;SDS011;62036;48.128;16.458;2023-04-10T00:48:52;13.57;;;8.65;;
73729;SDS011;62036;48.128;16.458;2023-04-10T00:51:19;14.77;;;5.97;;
73729;SDS011;62036;48.128;16.458;2023-04-10T00:53:47;16.52;;;7.95;;
73729;SDS011;62036;48.128;16.458;2023-04-10T00:56:15;15.95;;;7.80;;
73729;SDS011;62036;48.128;16.458;2023-04-10T00:58:41;16.33;;;8.40;;
73729;SDS011;62036;48.128;16.458;2023-04-10T01:01:07;14.02;;;6.90;;
73729;SDS011;62036;48.128;16.458;2023-04-10T01:03:33;15.30;;;7.93;;
73729;SDS011;62036;48.128;16.458;2023-04-10T01:06:05;12.93;;;6.65;;
73729;SDS011;62036;48.128;16.458;2023-04-10T01:13:31;13.00;;;6.57;;
73729;SDS011;62036;48.128;16.458;2023-04-10T01:18:28;14.57;;;7.82;;
73729;SDS011;62036;48.128;16.458;2023-04-10T01:20:56;12.25;;;6.65;;
73729;SDS011;62036;48.128;16.458;2023-04-10T01:26:03;15.25;;;7.40;;
73729;SDS011;62036;48.128;16.458;2023-04-10T01:28:40;12.63;;;7.80;;
73729;SDS011;62036;48.128;16.458;2023-04-10T01:31:07;15.55;;;8.73;;
73729;SDS011;62036;48.128;16.458;2023-04-10T01:33:39;13.30;;;7.70;;
73729;SDS011;62036;48.128;16.458;2023-04-10T01:36:09;12.13;;;6.85;;
73729;SDS011;62036;48.128;16.458;2023-04-10T01:38:36;15.77;;;8.27;;
73729;SDS011;62036;48.128;16.458;2023-04-10T01:41:05;12.85;;;6.43;;
73729;SDS011;62036;48.128;16.458;2023-04-10T01:43:32;14.20;;;7.70;;
73729;SDS011;62036;48.128;16.458;2023-04-10T01:45:59;13.43;;;8.02;;
73729;SDS011;62036;48.128;16.458;2023-04-10T01:48:26;12.13;;;6.53;;
73729;SDS011;62036;48.128;16.458;2023-04-10T01:50:53;12.82;;;7.30;;
73729;SDS011;62036;48.128;16.458;2023-04-10T01:53:19;12.38;;;6.88;;
73729;SDS011;62036;48.128;16.458;2023-04-10T01:55:46;11.98;;;7.00;;
73729;SDS011;62036;48.128;16.458;2023-04-10T01:58:12;11.35;;;6.90;;
73729;SDS011;62036;48.128;16.458;2023-04-10T02:00:38;12.32;;;6.57;;
73729;SDS011;62036;48.128;16.458;2023-04-10T02:03:05;12.30;;;6.40;;
73729;SDS011;62036;48.128;16.458;2023-04-10T02:05:35;12.60;;;7.70;;
73729;SDS011;62036;48.128;16.458;2023-04-10T02:08:14;14.00;;;7.32;;
73729;SDS011;62036;48.128;16.458;2023-04-10T02:10:49;9.93;;;5.53;;
73729;SDS011;62036;48.128;16.458;2023-04-10T02:13:17;13.02;;;7.30;;
73729;SDS011;62036;48.128;16.458;2023-04-10T02:15:45;9.38;;;5.75;;
73729;SDS011;62036;48.128;16.458;2023-04-10T02:18:11;12.05;;;6.85;;
73729;SDS011;62036;48.128;16.458;2023-04-10T02:20:40;14.93;;;7.60;;
73729;SDS011;62036;48.128;16.458;2023-04-10T02:23:07;13.40;;;7.63;;
73729;SDS011;62036;48.128;16.458;2023-04-10T02:25:33;11.63;;;7.18;;
73729;SDS011;62036;48.128;16.458;2023-04-10T02:28:03;14.50;;;7.60;;
73729;SDS011;62036;48.128;16.458;2023-04-10T02:30:29;12.98;;;7.93;;
73729;SDS011;62036;48.128;16.458;2023-04-10T02:32:56;12.88;;;6.75;;
73729;SDS011;62036;48.128;16.458;2023-04-10T02:35:22;13.98;;;7.20;;
73729;SDS011;62036;48.128;16.458;2023-04-10T02:37:48;12.52;;;6.20;;
73729;SDS011;62036;48.128;16.458;2023-04-10T02:40:15;11.65;;;7.22;;
73729;SDS011;62036;48.128;16.458;2023-04-10T02:42:41;12.50;;;7.00;;
73729;SDS011;62036;48.128;16.458;2023-04-10T02:45:07;13.30;;;6.72;;
73729;SDS011;62036;48.128;16.458;2023-04-10T02:47:34;13.55;;;8.70;;
73729;SDS011;62036;48.128;16.458;2023-04-10T02:50:00;15.43;;;7.78;;
73729;SDS011;62036;48.128;16.458;2023-04-10T02:52:26;16.00;;;7.47;;
73729;SDS011;62036;48.128;16.458;2023-04-10T02:54:52;12.77;;;7.10;;
73729;SDS011;62036;48.128;16.458;2023-04-10T02:57:18;13.65;;;7.05;;
73729;SDS011;62036;48.128;16.458;2023-04-10T02:59:45;15.00;;;7.13;;
73729;SDS011;62036;48.128;16.458;2023-04-10T03:02:15;13.93;;;7.75;;
73729;SDS011;62036;48.128;16.458;2023-04-10T03:04:41;12.05;;;7.15;;
73729;SDS011;62036;48.128;16.458;2023-04-10T03:07:07;13.68;;;7.53;;
73729;SDS011;62036;48.128;16.458;2023-04-10T03:09:33;14.20;;;8.05;;
73729;SDS011;62036;48.128;16.458;2023-04-10T03:11:59;12.93;;;7.35;;
73729;SDS011;62036;48.128;16.458;2023-04-10T03:14:26;16.20;;;8.00;;
73729;SDS011;62036;48.128;16.458;2023-04-10T03:16:52;13.45;;;7.28;;
73729;SDS011;62036;48.128;16.458;2023-04-10T03:19:18;16.13;;;7.07;;
73729;SDS011;62036;48.128;16.458;2023-04-10T03:21:44;14.07;;;6.78;;
73729;SDS011;62036;48.128;16.458;2023-04-10T03:24:11;15.98;;;7.78;;
73729;SDS011;62036;48.128;16.458;2023-04-10T03:26:37;16.83;;;8.15;;
73729;SDS011;62036;48.128;16.458;2023-04-10T03:29:03;13.40;;;7.75;;
73729;SDS011;62036;48.128;16.458;2023-04-10T03:31:29;16.65;;;7.85;;
73729;SDS011;62036;48.128;16.458;2023-04-10T03:33:55;14.70;;;7.88;;
73729;SDS011;62036;48.128;16.458;2023-04-10T03:36:21;14.98;;;7.60;;
73729;SDS011;62036;48.128;16.458;2023-04-10T03:38:47;15.93;;;8.75;;
73729;SDS011;62036;48.128;16.458;2023-04-10T03:41:13;16.40;;;9.18;;
73729;SDS011;62036;48.128;16.458;2023-04-10T03:43:39;14.93;;;6.60;;
73729;SDS011;62036;48.128;16.458;2023-04-10T03:46:05;13.50;;;7.85;;
73729;SDS011;62036;48.128;16.458;2023-04-10T03:48:31;15.27;;;7.63;;
73729;SDS011;62036;48.128;16.458;2023-04-10T03:50:58;12.43;;;7.13;;
73729;SDS011;62036;48.128;16.458;2023-04-10T03:53:24;12.55;;;7.38;;
73729;SDS011;62036;48.128;16.458;2023-04-10T03:55:50;13.48;;;7.05;;
73729;SDS011;62036;48.128;16.458;2023-04-10T03:58:17;13.20;;;7.00;;
73729;SDS011;62036;48.128;16.458;2023-04-10T04:00:43;10.93;;;6.20;;
73729;SDS011;62036;48.128;16.458;2023-04-10T04:03:09;12.88;;;7.25;;
73729;SDS011;62036;48.128;16.458;2023-04-10T04:05:37;13.88;;;8.00;;
73729;SDS011;62036;48.128;16.458;2023-04-10T04:08:03;13.23;;;7.22;;
73729;SDS011;62036;48.128;16.458;2023-04-10T04:10:30;12.43;;;5.47;;
73729;SDS011;62036;48.128;16.458;2023-04-10T04:12:56;16.13;;;7.60;;
73729;SDS011;62036;48.128;16.458;2023-04-10T04:15:22;14.80;;;7.22;;
73729;SDS011;62036;48.128;16.458;2023-04-10T04:17:49;14.57;;;7.20;;
73729;SDS011;62036;48.128;16.458;2023-04-10T04:20:15;12.70;;;7.25;;
73729;SDS011;62036;48.128;16.458;2023-04-10T04:22:42;14.30;;;7.50;;
73729;SDS011;62036;48.128;16.458;2023-04-10T04:25:08;14.10;;;7.00;;
73729;SDS011;62036;48.128;16.458;2023-04-10T04:27:35;13.15;;;7.43;;
73729;SDS011;62036;48.128;16.458;2023-04-10T04:30:02;14.27;;;7.68;;
73729;SDS011;62036;48.128;16.458;2023-04-10T04:32:28;11.73;;;7.03;;
73729;SDS011;62036;48.128;16.458;2023-04-10T04:34:54;11.40;;;6.38;;
73729;SDS011;62036;48.128;16.458;2023-04-10T04:37:20;14.88;;;6.95;;
73729;SDS011;62036;48.128;16.458;2023-04-10T04:39:46;14.07;;;7.25;;
73729;SDS011;62036;48.128;16.458;2023-04-10T04:42:12;13.10;;;7.40;;
73729;SDS011;62036;48.128;16.458;2023-04-10T04:44:38;13.30;;;7.10;;
73729;SDS011;62036;48.128;16.458;2023-04-10T04:47:04;17.27;;;8.13;;
73729;SDS011;62036;48.128;16.458;2023-04-10T04:49:30;12.23;;;6.75;;
73729;SDS011;62036;48.128;16.458;2023-04-10T04:51:56;13.35;;;7.68;;
73729;SDS011;62036;48.128;16.458;2023-04-10T04:54:22;16.70;;;7.85;;
73729;SDS011;62036;48.128;16.458;2023-04-10T04:56:48;12.88;;;7.50;;
73729;SDS011;62036;48.128;16.458;2023-04-10T04:59:14;10.73;;;5.80;;
73729;SDS011;62036;48.128;16.458;2023-04-10T05:01:40;13.13;;;7.32;;
73729;SDS011;62036;48.128;16.458;2023-04-10T05:04:06;14.00;;;7.47;;
73729;SDS011;62036;48.128;16.458;2023-04-10T05:06:32;9.68;;;5.90;;
73729;SDS011;62036;48.128;16.458;2023-04-10T05:08:58;13.23;;;6.55;;
73729;SDS011;62036;48.128;16.458;2023-04-10T05:11:24;16.52;;;6.68;;
73729;SDS011;62036;48.128;16.458;2023-04-10T05:13:50;11.02;;;5.53;;
73729;SDS011;62036;48.128;16.458;2023-04-10T05:16:16;11.23;;;6.07;;
73729;SDS011;62036;48.128;16.458;2023-04-10T05:18:42;15.88;;;6.78;;
73729;SDS011;62036;48.128;16.458;2023-04-10T05:21:08;11.88;;;7.13;;
73729;SDS011;62036;48.128;16.458;2023-04-10T05:23:34;14.70;;;6.82;;
73729;SDS011;62036;48.128;16.458;2023-04-10T05:26:00;12.18;;;6.40;;
73729;SDS011;62036;48.128;16.458;2023-04-10T05:28:26;12.90;;;6.85;;
73729;SDS011;62036;48.128;16.458;2023-04-10T05:30:53;13.88;;;7.43;;
73729;SDS011;62036;48.128;16.458;2023-04-10T05:33:19;12.27;;;6.55;;
73729;SDS011;62036;48.128;16.458;2023-04-10T05:35:45;13.02;;;6.15;;
73729;SDS011;62036;48.128;16.458;2023-04-10T05:38:11;13.63;;;7.50;;
73729;SDS011;62036;48.128;16.458;2023-04-10T05:40:37;11.25;;;6.55;;
73729;SDS011;62036;48.128;16.458;2023-04-10T05:43:03;14.30;;;7.45;;
73729;SDS011;62036;48.128;16.458;2023-04-10T05:45:29;14.38;;;7.40;;
73729;SDS011;62036;48.128;16.458;2023-04-10T05:47:55;13.13;;;7.22;;
73729;SDS011;62036;48.128;16.458;2023-04-10T05:50:21;12.85;;;6.85;;
73729;SDS011;62036;48.128;16.458;2023-04-10T05:52:47;13.18;;;6.05;;
73729;SDS011;62036;48.128;16.458;2023-04-10T05:55:13;11.43;;;7.07;;
73729;SDS011;62036;48.128;16.458;2023-04-10T05:57:39;12.32;;;6.50;;
73729;SDS011;62036;48.128;16.458;2023-04-10T06:00:05;14.38;;;7.35;;
73729;SDS011;62036;48.128;16.458;2023-04-10T06:02:32;10.88;;;6.65;;
73729;SDS011;62036;48.128;16.458;2023-04-10T06:04:58;13.82;;;6.78;;
73729;SDS011;62036;48.128;16.458;2023-04-10T06:07:24;14.15;;;6.50;;
73729;SDS011;62036;48.128;16.458;2023-04-10T06:09:51;13.55;;;6.65;;
73729;SDS011;62036;48.128;16.458;2023-04-10T06:12:17;14.98;;;8.68;;
73729;SDS011;62036;48.128;16.458;2023-04-10T06:14:43;16.58;;;8.75;;
73729;SDS011;62036;48.128;16.458;2023-04-10T06:17:09;13.80;;;8.48;;
73729;SDS011;62036;48.128;16.458;2023-04-10T06:19:35;16.50;;;7.80;;
73729;SDS011;62036;48.128;16.458;2023-04-10T06:22:01;16.17;;;9.18;;
73729;SDS011;62036;48.128;16.458;2023-04-10T06:24:27;15.50;;;8.60;;
73729;SDS011;62036;48.128;16.458;2023-04-10T06:26:53;14.82;;;7.25;;
73729;SDS011;62036;48.128;16.458;2023-04-10T06:29:21;15.82;;;7.72;;
73729;SDS011;62036;48.128;16.458;2023-04-10T06:31:47;13.68;;;7.97;;
73729;SDS011;62036;48.128;16.458;2023-04-10T06:34:13;18.15;;;8.05;;
73729;SDS011;62036;48.128;16.458;2023-04-10T06:36:39;15.02;;;7.95;;
73729;SDS011;62036;48.128;16.458;2023-04-10T06:39:05;13.68;;;7.38;;
73729;SDS011;62036;48.128;16.458;2023-04-10T06:41:31;16.23;;;8.57;;
73729;SDS011;62036;48.128;16.458;2023-04-10T06:43:57;18.25;;;9.38;;
73729;SDS011;62036;48.128;16.458;2023-04-10T06:46:23;13.82;;;7.47;;
73729;SDS011;62036;48.128;16.458;2023-04-10T06:48:49;14.60;;;8.77;;
73729;SDS011;62036;48.128;16.458;2023-04-10T06:51:15;15.13;;;7.13;;
73729;SDS011;62036;48.128;16.458;2023-04-10T06:53:42;14.77;;;7.95;;
73729;SDS011;62036;48.128;16.458;2023-04-10T06:56:08;13.63;;;7.82;;
73729;SDS011;62036;48.128;16.458;2023-04-10T06:58:34;16.35;;;9.65;;
73729;SDS011;62036;48.128;16.458;2023-04-10T07:01:00;16.15;;;9.05;;
73729;SDS011;62036;48.128;16.458;2023-04-10T07:03:28;19.05;;;9.27;;
73729;SDS011;62036;48.128;16.458;2023-04-10T07:05:55;17.83;;;9.35;;
73729;SDS011;62036;48.128;16.458;2023-04-10T07:08:21;14.80;;;8.57;;
73729;SDS011;62036;48.128;16.458;2023-04-10T07:10:47;16.10;;;9.38;;
73729;SDS011;62036;48.128;16.458;2023-04-10T07:13:13;15.57;;;9.40;;
73729;SDS011;62036;48.128;16.458;2023-04-10T07:15:39;17.52;;;9.23;;
73729;SDS011;62036;48.128;16.458;2023-04-10T07:18:05;16.55;;;9.77;;
73729;SDS011;62036;48.128;16.458;2023-04-10T07:20:31;19.75;;;9.38;;
73729;SDS011;62036;48.128;16.458;2023-04-10T07:22:57;18.70;;;9.23;;
73729;SDS011;62036;48.128;16.458;2023-04-10T07:25:23;18.58;;;9.85;;
73729;SDS011;62036;48.128;16.458;2023-04-10T07:27:49;17.42;;;9.48;;
73729;SDS011;62036;48.128;16.458;2023-04-10T07:30:15;17.58;;;8.73;;
73729;SDS011;62036;48.128;16.458;2023-04-10T07:32:41;19.98;;;10.02;;
73729;SDS011;62036;48.128;16.458;2023-04-10T07:35:07;19.23;;;10.60;;
73729;SDS011;62036;48.128;16.458;2023-04-10T07:37:33;21.13;;;10.93;;
73729;SDS011;62036;48.128;16.458;2023-04-10T07:39:59;36.08;;;18.55;;
73729;SDS011;62036;48.128;16.458;2023-04-10T07:42:26;19.30;;;9.68;;
73729;SDS011;62036;48.128;16.458;2023-04-10T07:44:52;19.30;;;9.85;;
73729;SDS011;62036;48.128;16.458;2023-04-10T07:47:18;20.92;;;11.10;;
73729;SDS011;62036;48.128;16.458;2023-04-10T07:49:44;19.75;;;9.93;;
73729;SDS011;62036;48.128;16.458;2023-04-10T07:52:10;15.63;;;9.13;;
73729;SDS011;62036;48.128;16.458;2023-04-10T07:54:36;16.27;;;9.10;;
73729;SDS011;62036;48.128;16.458;2023-04-10T07:57:02;18.75;;;10.20;;
73729;SDS011;62036;48.128;16.458;2023-04-10T07:59:28;15.50;;;10.77;;
73729;SDS011;62036;48.128;16.458;2023-04-10T08:01:54;18.35;;;10.30;;
73729;SDS011;62036;48.128;16.458;2023-04-10T08:04:20;15.73;;;9.13;;
73729;SDS011;62036;48.128;16.458;2023-04-10T08:06:46;19.02;;;9.82;;
73729;SDS011;62036;48.128;16.458;2023-04-10T08:09:14;17.33;;;9.77;;
73729;SDS011;62036;48.128;16.458;2023-04-10T08:11:40;18.77;;;10.48;;
73729;SDS011;62036;48.128;16.458;2023-04-10T08:14:06;17.30;;;9.85;;
73729;SDS011;62036;48.128;16.458;2023-04-10T08:16:32;18.63;;;9.77;;
73729;SDS011;62036;48.128;16.458;2023-04-10T08:18:59;18.67;;;9.60;;
73729;SDS011;62036;48.128;16.458;2023-04-10T08:21:26;21.33;;;12.10;;
73729;SDS011;62036;48.128;16.458;2023-04-10T08:23:53;20.55;;;11.18;;
73729;SDS011;62036;48.128;16.458;2023-04-10T08:26:19;20.90;;;11.38;;
73729;SDS011;62036;48.128;16.458;2023-04-10T08:28:48;22.65;;;11.80;;
73729;SDS011;62036;48.128;16.458;2023-04-10T08:31:17;21.15;;;11.63;;
73729;SDS011;62036;48.128;16.458;2023-04-10T08:33:43;21.30;;;10.80;;
73729;SDS011;62036;48.128;16.458;2023-04-10T08:36:09;23.58;;;11.82;;
73729;SDS011;62036;48.128;16.458;2023-04-10T08:38:39;18.40;;;10.50;;
73729;SDS011;62036;48.128;16.458;2023-04-10T08:41:13;22.10;;;11.82;;
73729;SDS011;62036;48.128;16.458;2023-04-10T08:43:39;24.00;;;12.13;;
73729;SDS011;62036;48.128;16.458;2023-04-10T08:46:05;18.45;;;9.68;;
73729;SDS011;62036;48.128;16.458;2023-04-10T08:48:37;23.80;;;11.85;;
73729;SDS011;62036;48.128;16.458;2023-04-10T08:51:04;25.00;;;12.63;;
73729;SDS011;62036;48.128;16.458;2023-04-10T08:53:32;22.48;;;12.63;;
73729;SDS011;62036;48.128;16.458;2023-04-10T08:55:59;23.90;;;12.60;;
73729;SDS011;62036;48.128;16.458;2023-04-10T08:58:27;24.80;;;12.20;;
73729;SDS011;62036;48.128;16.458;2023-04-10T09:00:53;23.67;;;12.30;;
73729;SDS011;62036;48.128;16.458;2023-04-10T09:03:19;21.23;;;11.38;;
73729;SDS011;62036;48.128;16.458;2023-04-10T09:05:45;18.98;;;11.00;;
73729;SDS011;62036;48.128;16.458;2023-04-10T09:08:13;21.88;;;12.43;;
73729;SDS011;62036;48.128;16.458;2023-04-10T09:10:39;22.00;;;12.35;;
73729;SDS011;62036;48.128;16.458;2023-04-10T09:13:05;23.05;;;12.00;;
73729;SDS011;62036;48.128;16.458;2023-04-10T09:18:16;18.98;;;11.90;;
73729;SDS011;62036;48.128;16.458;2023-04-10T09:20:43;18.58;;;9.73;;
73729;SDS011;62036;48.128;16.458;2023-04-10T09:23:18;19.98;;;10.80;;
73729;SDS011;62036;48.128;16.458;2023-04-10T09:25:45;21.55;;;12.93;;
73729;SDS011;62036;48.128;16.458;2023-04-10T09:28:11;18.85;;;11.80;;
73729;SDS011;62036;48.128;16.458;2023-04-10T09:30:41;20.65;;;12.68;;
73729;SDS011;62036;48.128;16.458;2023-04-10T09:33:19;22.27;;;12.68;;
73729;SDS011;62036;48.128;16.458;2023-04-10T09:35:46;23.75;;;12.18;;
73729;SDS011;62036;48.128;16.458;2023-04-10T09:38:16;19.77;;;11.50;;
73729;SDS011;62036;48.128;16.458;2023-04-10T09:40:43;20.35;;;11.63;;
73729;SDS011;62036;48.128;16.458;2023-04-10T09:43:17;23.67;;;13.10;;
73729;SDS011;62036;48.128;16.458;2023-04-10T09:46:01;23.42;;;11.93;;
73729;SDS011;62036;48.128;16.458;2023-04-10T09:50:53;24.27;;;11.85;;
73729;SDS011;62036;48.128;16.458;2023-04-10T09:53:19;23.95;;;13.95;;
73729;SDS011;62036;48.128;16.458;2023-04-10T09:55:46;18.60;;;10.88;;
73729;SDS011;62036;48.128;16.458;2023-04-10T09:58:12;18.63;;;11.30;;
73729;SDS011;62036;48.128;16.458;2023-04-10T10:00:39;24.50;;;12.73;;
73729;SDS011;62036;48.128;16.458;2023-04-10T10:03:08;21.50;;;12.73;;
73729;SDS011;62036;48.128;16.458;2023-04-10T10:05:39;23.88;;;13.48;;
73729;SDS011;62036;48.128;16.458;2023-04-10T10:08:06;24.08;;;14.38;;
73729;SDS011;62036;48.128;16.458;2023-04-10T10:10:32;20.75;;;11.73;;
73729;SDS011;62036;48.128;16.458;2023-04-10T10:12:59;22.92;;;12.43;;
73729;SDS011;62036;48.128;16.458;2023-04-10T10:15:37;22.23;;;12.52;;
73729;SDS011;62036;48.128;16.458;2023-04-10T10:18:17;20.13;;;12.00;;
73729;SDS011;62036;48.128;16.458;2023-04-10T10:20:45;21.90;;;11.68;;
73729;SDS011;62036;48.128;16.458;2023-04-10T10:23:12;23.52;;;13.05;;
73729;SDS011;62036;48.128;16.458;2023-04-10T10:25:41;25.33;;;13.73;;
73729;SDS011;62036;48.128;16.458;2023-04-10T10:28:08;21.17;;;11.82;;
73729;SDS011;62036;48.128;16.458;2023-04-10T10:30:36;24.98;;;13.63;;
73729;SDS011;62036;48.128;16.458;2023-04-10T10:33:05;22.88;;;12.50;;
73729;SDS011;62036;48.128;16.458;2023-04-10T10:35:33;23.33;;;13.45;;
73729;SDS011;62036;48.128;16.458;2023-04-10T10:37:59;23.48;;;12.88;;
73729;SDS011;62036;48.128;16.458;2023-04-10T10:40:30;24.70;;;13.55;;
73729;SDS011;62036;48.128;16.458;2023-04-10T10:47:55;24.55;;;12.82;;
73729;SDS011;62036;48.128;16.458;2023-04-10T10:50:21;24.20;;;13.38;;
73729;SDS011;62036;48.128;16.458;2023-04-10T10:57:49;24.60;;;13.10;;
73729;SDS011;62036;48.128;16.458;2023-04-10T11:00:19;21.08;;;11.80;;
73729;SDS011;62036;48.128;16.458;2023-04-10T11:03:10;22.48;;;13.43;;
73729;SDS011;62036;48.128;16.458;2023-04-10T11:08:16;20.60;;;11.75;;
73729;SDS011;62036;48.128;16.458;2023-04-10T11:11:16;22.88;;;13.52;;
73729;SDS011;62036;48.128;16.458;2023-04-10T11:13:42;22.67;;;12.73;;
73729;SDS011;62036;48.128;16.458;2023-04-10T11:21:25;25.25;;;14.05;;
73729;SDS011;62036;48.128;16.458;2023-04-10T11:29:05;25.05;;;14.63;;
73729;SDS011;62036;48.128;16.458;2023-04-10T11:31:32;21.50;;;12.25;;
73729;SDS011;62036;48.128;16.458;2023-04-10T11:34:02;22.77;;;12.48;;
73729;SDS011;62036;48.128;16.458;2023-04-10T11:36:29;24.98;;;14.35;;
73729;SDS011;62036;48.128;16.458;2023-04-10T11:39:05;20.92;;;12.52;;
73729;SDS011;62036;48.128;16.458;2023-04-10T11:41:54;25.85;;;13.60;;
73729;SDS011;62036;48.128;16.458;2023-04-10T11:46:50;22.60;;;13.82;;
73729;SDS011;62036;48.128;16.458;2023-04-10T11:49:20;23.00;;;13.85;;
73729;SDS011;62036;48.128;16.458;2023-04-10T11:51:47;21.27;;;13.57;;
73729;SDS011;62036;48.128;16.458;2023-04-10T11:54:17;22.30;;;13.43;;
73729;SDS011;62036;48.128;16.458;2023-04-10T11:56:44;21.42;;;13.23;;
73729;SDS011;62036;48.128;16.458;2023-04-10T11:59:11;21.30;;;11.65;;
73729;SDS011;62036;48.128;16.458;2023-04-10T12:01:40;22.95;;;13.20;;
73729;SDS011;62036;48.128;16.458;2023-04-10T12:04:15;21.20;;;13.77;;
73729;SDS011;62036;48.128;16.458;2023-04-10T12:06:48;20.77;;;13.10;;
73729;SDS011;62036;48.128;16.458;2023-04-10T12:09:15;24.88;;;13.38;;
73729;SDS011;62036;48.128;16.458;2023-04-10T12:14:14;20.58;;;13.20;;
73729;SDS011;62036;48.128;16.458;2023-04-10T12:16:40;20.75;;;12.85;;
73729;SDS011;62036;48.128;16.458;2023-04-10T12:19:06;21.38;;;13.02;;
73729;SDS011;62036;48.128;16.458;2023-04-10T12:21:35;19.52;;;12.50;;
73729;SDS011;62036;48.128;16.458;2023-04-10T12:24:01;21.27;;;12.40;;
73729;SDS011;62036;48.128;16.458;2023-04-10T12:26:27;19.70;;;12.10;;
73729;SDS011;62036;48.128;16.458;2023-04-10T12:28:54;19.30;;;12.15;;
73729;SDS011;62036;48.128;16.458;2023-04-10T12:31:28;21.40;;;13.35;;
73729;SDS011;62036;48.128;16.458;2023-04-10T12:33:55;20.35;;;11.63;;
73729;SDS011;62036;48.128;16.458;2023-04-10T12:36:22;20.27;;;12.98;;
73729;SDS011;62036;48.128;16.458;2023-04-10T12:38:48;19.42;;;12.60;;
73729;SDS011;62036;48.128;16.458;2023-04-10T12:41:20;20.08;;;12.43;;
73729;SDS011;62036;48.128;16.458;2023-04-10T12:43:47;19.80;;;12.55;;
73729;SDS011;62036;48.128;16.458;2023-04-10T12:46:24;20.90;;;12.38;;
73729;SDS011;62036;48.128;16.458;2023-04-10T12:48:50;20.92;;;12.85;;
73729;SDS011;62036;48.128;16.458;2023-04-10T12:51:16;22.45;;;13.63;;
73729;SDS011;62036;48.128;16.458;2023-04-10T12:53:43;20.40;;;12.10;;
73729;SDS011;62036;48.128;16.458;2023-04-10T12:56:09;20.50;;;11.65;;
73729;SDS011;62036;48.128;16.458;2023-04-10T12:58:36;19.80;;;12.05;;
73729;SDS011;62036;48.128;16.458;2023-04-10T13:01:04;20.70;;;12.52;;
73729;SDS011;62036;48.128;16.458;2023-04-10T13:03:32;19.58;;;12.18;;
73729;SDS011;62036;48.128;16.458;2023-04-10T13:05:58;20.25;;;11.73;;
73729;SDS011;62036;48.128;16.458;2023-04-10T13:08:24;17.52;;;11.32;;
73729;SDS011;62036;48.128;16.458;2023-04-10T13:10:50;17.75;;;11.32;;
73729;SDS011;62036;48.128;16.458;2023-04-10T13:13:17;18.92;;;11.52;;
73729;SDS011;62036;48.128;16.458;2023-04-10T13:15:43;19.40;;;11.23;;
73729;SDS011;62036;48.128;16.458;2023-04-10T13:18:09;17.48;;;11.00;;
73729;SDS011;62036;48.128;16.458;2023-04-10T13:20:36;16.38;;;10.43;;
73729;SDS011;62036;48.128;16.458;2023-04-10T13:23:02;18.17;;;11.27;;
73729;SDS011;62036;48.128;16.458;2023-04-10T13:25:32;18.85;;;11.65;;
73729;SDS011;62036;48.128;16.458;2023-04-10T13:27:59;19.10;;;11.20;;
73729;SDS011;62036;48.128;16.458;2023-04-10T13:30:26;20.00;;;12.30;;
73729;SDS011;62036;48.128;16.458;2023-04-10T13:32:52;18.98;;;11.18;;
73729;SDS011;62036;48.128;16.458;2023-04-10T13:35:18;18.65;;;10.88;;
73729;SDS011;62036;48.128;16.458;2023-04-10T13:37:44;18.35;;;11.73;;
73729;SDS011;62036;48.128;16.458;2023-04-10T13:40:10;17.90;;;10.95;;
73729;SDS011;62036;48.128;16.458;2023-04-10T13:42:36;19.55;;;11.95;;
73729;SDS011;62036;48.128;16.458;2023-04-10T13:45:02;16.58;;;10.73;;
73729;SDS011;62036;48.128;16.458;2023-04-10T13:47:28;22.38;;;12.45;;
73729;SDS011;62036;48.128;16.458;2023-04-10T13:49:54;20.00;;;12.77;;
73729;SDS011;62036;48.128;16.458;2023-04-10T13:52:20;16.42;;;10.48;;
73729;SDS011;62036;48.128;16.458;2023-04-10T13:54:46;16.15;;;10.68;;
73729;SDS011;62036;48.128;16.458;2023-04-10T13:57:12;16.10;;;10.02;;
73729;SDS011;62036;48.128;16.458;2023-04-10T13:59:38;15.50;;;9.80;;
73729;SDS011;62036;48.128;16.458;2023-04-10T14:02:05;15.77;;;10.52;;
73729;SDS011;62036;48.128;16.458;2023-04-10T14:04:31;15.68;;;10.32;;
73729;SDS011;62036;48.128;16.458;2023-04-10T14:06:57;15.38;;;10.57;;
73729;SDS011;62036;48.128;16.458;2023-04-10T14:09:24;17.15;;;10.40;;
73729;SDS011;62036;48.128;16.458;2023-04-10T14:11:51;17.40;;;11.57;;
73729;SDS011;62036;48.128;16.458;2023-04-10T14:14:17;16.05;;;10.45;;
73729;SDS011;62036;48.128;16.458;2023-04-10T14:16:43;17.30;;;10.93;;
73729;SDS011;62036;48.128;16.458;2023-04-10T14:19:09;17.73;;;10.77;;
73729;SDS011;62036;48.128;16.458;2023-04-10T14:21:35;18.60;;;11.48;;
73729;SDS011;62036;48.128;16.458;2023-04-10T14:24:01;17.50;;;10.73;;
73729;SDS011;62036;48.128;16.458;2023-04-10T14:26:27;15.95;;;10.52;;
73729;SDS011;62036;48.128;16.458;2023-04-10T14:28:53;15.60;;;9.55;;
73729;SDS011;62036;48.128;16.458;2023-04-10T14:31:20;15.40;;;10.05;;
73729;SDS011;62036;48.128;16.458;2023-04-10T14:33:46;16.45;;;10.32;;
73729;SDS011;62036;48.128;16.458;2023-04-10T14:36:12;17.08;;;10.40;;
73729;SDS011;62036;48.128;16.458;2023-04-10T14:38:38;14.43;;;9.65;;
73729;SDS011;62036;48.128;16.458;2023-04-10T14:41:04;16.02;;;9.77;;
73729;SDS011;62036;48.128;16.458;2023-04-10T14:43:30;17.30;;;11.10;;
73729;SDS011;62036;48.128;16.458;2023-04-10T14:45:56;16.25;;;10.48;;
73729;SDS011;62036;48.128;16.458;2023-04-10T14:48:22;15.75;;;10.80;;
73729;SDS011;62036;48.128;16.458;2023-04-10T14:50:48;17.33;;;10.82;;
73729;SDS011;62036;48.128;16.458;2023-04-10T14:53:14;17.13;;;10.75;;
73729;SDS011;62036;48.128;16.458;2023-04-10T14:55:40;16.90;;;10.65;;
73729;SDS011;62036;48.128;16.458;2023-04-10T14:58:06;12.57;;;8.43;;